Time;durP1;ratioP1;P1;durP2;ratioP2;P2;SDS_P1;SDS_P2;PMS_P1;PMS_P2;Temp;Humidity;BMP_temperature;BMP_pressure;BME280_temperature;BME280_humidity;BME280_pressure;Samples;Min_cycle;Max_cycle;Signal;HPM_P1;HPM_P2
2022/10/28 00:01:23;;;;;;;86.13;29.63;;;14.20;99.90;;;;;;5055256;28;20032;-71
2022/10/28 00:03:51;;;;;;;93.22;31.52;;;14.30;99.90;;;;;;5060200;28;20123;-71
2022/10/28 00:06:20;;;;;;;99.55;32.33;;;14.30;99.90;;;;;;5057716;28;20400;-71
2022/10/28 00:08:46;;;;;;;91.10;32.38;;;14.20;99.90;;;;;;5059915;28;20072;-71
2022/10/28 00:11:17;;;;;;;83.68;29.90;;;14.20;99.90;;;;;;5061406;28;20040;-71
2022/10/28 00:13:44;;;;;;;86.85;29.55;;;14.20;99.90;;;;;;5057819;28;20072;-71
2022/10/28 00:16:22;;;;;;;82.03;30.67;;;14.20;99.90;;;;;;5056941;28;20054;-71
2022/10/28 00:18:49;;;;;;;80.45;30.50;;;14.10;99.90;;;;;;5060887;28;20044;-71
2022/10/28 00:21:22;;;;;;;91.13;31.25;;;14.00;99.90;;;;;;5061404;28;20038;-71
2022/10/28 00:23:48;;;;;;;80.65;29.58;;;14.10;99.90;;;;;;5060512;28;20077;-71
2022/10/28 00:26:16;;;;;;;82.65;29.63;;;14.00;99.90;;;;;;5059552;28;20406;-71
2022/10/28 00:28:44;;;;;;;88.57;29.77;;;14.10;99.90;;;;;;5079532;28;20131;-71
2022/10/28 00:31:12;;;;;;;86.07;30.17;;;14.10;99.90;;;;;;5074480;28;20047;-71
2022/10/28 00:33:37;;;;;;;79.10;28.30;;;14.10;99.90;;;;;;5077001;28;20608;-72
2022/10/28 00:36:34;;;;;;;93.40;31.75;;;14.10;99.90;;;;;;5059839;28;20040;-71
2022/10/28 00:39:01;;;;;;;78.57;28.40;;;14.00;99.90;;;;;;5059262;28;20051;-71
2022/10/28 00:41:29;;;;;;;85.53;30.35;;;14.00;99.90;;;;;;5055026;28;20469;-71
2022/10/28 00:44:01;;;;;;;87.88;29.85;;;14.00;99.90;;;;;;5053658;28;20040;-71
2022/10/28 00:46:41;;;;;;;93.68;31.65;;;14.00;99.90;;;;;;5056112;28;20075;-71
2022/10/28 00:49:26;;;;;;;88.80;30.58;;;14.00;99.90;;;;;;5060928;28;20060;-71
2022/10/28 00:51:58;;;;;;;83.82;30.73;;;14.00;99.90;;;;;;5052825;28;20117;-72
2022/10/28 00:54:24;;;;;;;90.45;31.67;;;13.90;99.90;;;;;;5052564;28;20033;-71
2022/10/28 00:56:53;;;;;;;80.35;29.15;;;14.00;99.90;;;;;;5056074;28;20088;-72
2022/10/28 00:59:23;;;;;;;85.75;30.13;;;14.00;99.90;;;;;;5060984;28;20455;-71
2022/10/28 01:01:49;;;;;;;83.90;29.92;;;13.90;99.90;;;;;;5058659;28;20070;-71
2022/10/28 01:04:15;;;;;;;90.13;29.63;;;13.90;99.90;;;;;;5076136;28;20423;-71
2022/10/28 01:06:41;;;;;;;92.07;28.52;;;14.00;99.90;;;;;;5037973;28;20051;-71
2022/10/28 01:09:07;;;;;;;81.20;28.77;;;13.90;99.90;;;;;;5057902;28;20036;-71
2022/10/28 01:11:52;;;;;;;91.00;27.40;;;13.90;99.90;;;;;;5054531;28;20048;-71
2022/10/28 01:14:31;;;;;;;82.88;27.83;;;13.90;99.90;;;;;;5072164;28;20053;-71
2022/10/28 01:17:21;;;;;;;81.00;28.35;;;13.90;99.90;;;;;;5057632;28;20066;-71
2022/10/28 01:20:06;;;;;;;84.35;27.48;;;13.90;99.90;;;;;;5058801;28;20036;-71
2022/10/28 01:22:43;;;;;;;85.03;28.10;;;13.90;99.90;;;;;;5056823;28;20071;-71
2022/10/28 01:25:30;;;;;;;86.90;28.38;;;13.90;99.90;;;;;;5078300;28;20043;-71
2022/10/28 01:28:31;;;;;;;88.60;27.88;;;13.90;99.90;;;;;;5048778;28;20143;-72
2022/10/28 01:31:19;;;;;;;88.32;28.05;;;13.90;99.90;;;;;;5053302;28;20044;-72
2022/10/28 01:34:06;;;;;;;78.65;28.10;;;13.90;99.90;;;;;;5052709;28;20049;-72
2022/10/28 01:36:46;;;;;;;91.35;30.67;;;13.90;99.90;;;;;;5055087;28;20618;-72
2022/10/28 01:39:23;;;;;;;96.50;30.02;;;13.80;99.90;;;;;;5061236;28;20119;-72
2022/10/28 01:41:57;;;;;;;102.47;32.00;;;13.80;99.90;;;;;;5056513;28;20093;-72
2022/10/28 01:44:38;;;;;;;89.15;30.08;;;13.80;99.90;;;;;;5061672;28;20102;-72
2022/10/28 01:47:29;;;;;;;88.63;30.55;;;13.70;99.90;;;;;;5059318;28;20533;-71
2022/10/28 01:50:00;;;;;;;91.80;31.70;;;13.70;99.90;;;;;;5062562;28;20052;-71
2022/10/28 01:52:28;;;;;;;98.85;30.95;;;13.60;99.90;;;;;;5056215;28;20441;-72
2022/10/28 01:55:06;;;;;;;98.50;31.85;;;13.60;99.90;;;;;;5056714;28;20044;-72
2022/10/28 01:57:33;;;;;;;96.95;31.60;;;13.60;99.90;;;;;;5049911;28;20075;-72
2022/10/28 02:00:00;;;;;;;104.38;33.15;;;13.70;99.90;;;;;;5059767;28;20032;-72
2022/10/28 02:02:32;;;;;;;106.68;32.92;;;13.60;99.90;;;;;;5056882;28;20763;-72
2022/10/28 02:05:04;;;;;;;113.97;33.70;;;13.70;99.90;;;;;;5082036;28;20459;-72
2022/10/28 02:07:29;;;;;;;104.55;33.70;;;13.70;99.90;;;;;;5073877;28;20502;-72
2022/10/28 02:10:15;;;;;;;103.32;33.47;;;13.60;99.90;;;;;;5062011;28;20043;-72
2022/10/28 02:12:43;;;;;;;94.38;32.42;;;13.60;99.90;;;;;;5077535;28;20032;-72
2022/10/28 02:15:37;;;;;;;102.60;33.85;;;13.60;99.90;;;;;;5061796;28;20028;-72
2022/10/28 02:18:19;;;;;;;97.65;32.72;;;13.60;99.90;;;;;;5059123;28;20044;-72
2022/10/28 02:20:58;;;;;;;100.22;34.70;;;13.60;99.90;;;;;;5062415;28;20082;-72
2022/10/28 02:23:38;;;;;;;103.75;32.70;;;13.60;99.90;;;;;;5058863;28;20113;-72
2022/10/28 02:26:14;;;;;;;100.75;33.53;;;13.60;99.90;;;;;;5057876;28;20036;-72
2022/10/28 02:28:48;;;;;;;107.32;32.90;;;13.50;99.90;;;;;;5075318;28;20059;-72
2022/10/28 02:31:34;;;;;;;94.10;33.08;;;13.60;99.90;;;;;;5056626;28;20052;-72
2022/10/28 02:34:08;;;;;;;106.95;34.03;;;13.60;99.90;;;;;;5056519;28;20170;-72
2022/10/28 02:36:39;;;;;;;96.72;33.47;;;13.50;99.90;;;;;;5063869;28;20078;-72
2022/10/28 02:39:06;;;;;;;117.85;35.35;;;13.50;99.90;;;;;;5059434;28;20491;-72
2022/10/28 02:41:50;;;;;;;93.43;32.78;;;13.50;99.90;;;;;;5055406;28;20503;-72
2022/10/28 02:44:20;;;;;;;99.07;33.88;;;13.50;99.90;;;;;;5063245;28;20047;-72
2022/10/28 02:46:48;;;;;;;97.55;35.25;;;13.50;99.90;;;;;;5074012;28;20080;-72
2022/10/28 02:49:14;;;;;;;104.63;34.47;;;13.40;99.90;;;;;;5079023;28;20148;-72
2022/10/28 02:51:51;;;;;;;104.90;33.58;;;13.40;99.90;;;;;;5055752;28;20131;-72
2022/10/28 02:54:22;;;;;;;103.88;35.05;;;13.40;99.90;;;;;;5042399;28;20422;-72
2022/10/28 02:57:12;;;;;;;107.55;35.95;;;13.40;99.90;;;;;;5060878;28;20086;-72
2022/10/28 02:59:38;;;;;;;98.30;34.38;;;13.40;99.90;;;;;;5058231;28;20045;-72
2022/10/28 03:02:04;;;;;;;112.07;36.08;;;13.40;99.90;;;;;;5057092;28;20566;-72
2022/10/28 03:04:30;;;;;;;114.28;35.03;;;13.30;99.90;;;;;;5074225;28;20127;-72
2022/10/28 03:06:55;;;;;;;108.50;35.85;;;13.40;99.90;;;;;;5054659;28;20040;-72
2022/10/28 03:09:21;;;;;;;114.07;38.05;;;13.30;99.90;;;;;;5047233;28;20052;-72
2022/10/28 03:11:46;;;;;;;125.78;38.58;;;13.20;99.90;;;;;;5057637;28;20499;-72
2022/10/28 03:14:12;;;;;;;119.75;38.08;;;13.30;99.90;;;;;;5059327;28;20040;-72
2022/10/28 03:16:37;;;;;;;133.10;37.92;;;13.40;99.90;;;;;;5055385;28;20415;-72
2022/10/28 03:19:03;;;;;;;131.40;38.80;;;13.30;99.90;;;;;;5062204;28;20054;-72
2022/10/28 03:21:28;;;;;;;118.65;39.25;;;13.30;99.90;;;;;;5060719;28;20063;-72
2022/10/28 03:23:54;;;;;;;125.32;39.72;;;13.40;99.90;;;;;;5071376;28;20032;-72
2022/10/28 03:26:20;;;;;;;135.40;41.15;;;13.30;99.90;;;;;;5041441;28;20480;-72
2022/10/28 03:28:45;;;;;;;137.57;39.83;;;13.20;99.90;;;;;;5058748;28;20096;-72
2022/10/28 03:31:11;;;;;;;121.68;39.35;;;13.30;99.90;;;;;;5055790;28;20044;-72
2022/10/28 03:33:37;;;;;;;120.10;39.78;;;13.30;99.90;;;;;;5039912;28;20039;-72
2022/10/28 03:36:04;;;;;;;120.63;37.88;;;13.20;99.90;;;;;;5057174;28;20046;-72
2022/10/28 03:38:29;;;;;;;123.07;39.78;;;13.30;99.90;;;;;;5050041;28;20090;-72
2022/10/28 03:40:55;;;;;;;131.60;42.42;;;13.20;99.90;;;;;;5055418;28;20526;-72
2022/10/28 03:43:20;;;;;;;129.32;43.40;;;13.30;99.90;;;;;;5037854;28;20040;-72
2022/10/28 03:45:46;;;;;;;135.27;41.38;;;13.20;99.90;;;;;;5057328;28;20127;-72
2022/10/28 03:48:12;;;;;;;130.05;40.78;;;13.30;99.90;;;;;;5056973;28;20528;-72
2022/10/28 03:50:38;;;;;;;144.05;43.00;;;13.20;99.90;;;;;;5058176;28;20771;-72
2022/10/28 03:53:03;;;;;;;134.70;41.53;;;13.20;99.90;;;;;;5058731;28;20040;-72
2022/10/28 03:55:29;;;;;;;144.10;44.25;;;13.20;99.90;;;;;;5054061;28;20094;-72
2022/10/28 03:57:54;;;;;;;131.80;41.97;;;13.10;99.90;;;;;;5059283;28;20046;-72
2022/10/28 04:00:20;;;;;;;135.32;41.08;;;13.20;99.90;;;;;;5054377;28;20040;-72
2022/10/28 04:02:51;;;;;;;135.77;42.80;;;13.20;99.90;;;;;;5053690;28;20433;-72
2022/10/28 04:05:17;;;;;;;140.52;43.63;;;13.20;99.90;;;;;;5054678;28;20048;-72
2022/10/28 04:07:43;;;;;;;144.45;45.80;;;13.20;99.90;;;;;;5055217;28;20025;-72
2022/10/28 04:10:09;;;;;;;141.48;43.78;;;13.10;99.90;;;;;;5057500;28;20046;-72
2022/10/28 04:12:35;;;;;;;149.73;44.90;;;13.20;99.90;;;;;;5075656;28;20036;-72
2022/10/28 04:15:01;;;;;;;149.73;46.33;;;13.10;99.90;;;;;;5057139;28;20085;-72
2022/10/28 04:17:26;;;;;;;132.65;45.88;;;13.10;99.90;;;;;;5059072;28;20032;-72
2022/10/28 04:19:52;;;;;;;142.57;44.00;;;13.20;99.90;;;;;;5076506;28;20047;-72
2022/10/28 04:22:17;;;;;;;126.20;42.35;;;13.10;99.90;;;;;;5054437;28;20044;-72
2022/10/28 04:24:43;;;;;;;138.35;44.55;;;13.20;99.90;;;;;;5037545;28;20135;-72
2022/10/28 04:27:09;;;;;;;154.63;45.17;;;13.20;99.90;;;;;;5058236;28;20044;-72
2022/10/28 04:29:35;;;;;;;129.15;41.08;;;13.20;99.90;;;;;;5056200;28;20090;-72
2022/10/28 04:32:00;;;;;;;130.82;42.25;;;13.20;99.90;;;;;;5055379;28;20044;-72
2022/10/28 04:34:26;;;;;;;141.20;43.60;;;13.20;99.90;;;;;;5059103;28;20045;-72
2022/10/28 04:36:52;;;;;;;136.57;42.35;;;13.20;99.90;;;;;;5037987;28;20423;-72
2022/10/28 04:39:17;;;;;;;135.70;43.90;;;13.10;99.90;;;;;;5053619;28;20092;-72
2022/10/28 04:41:43;;;;;;;139.32;42.35;;;13.20;99.90;;;;;;5054817;28;20109;-72
2022/10/28 04:44:08;;;;;;;148.00;43.58;;;13.10;99.90;;;;;;5039781;28;20044;-72
2022/10/28 04:46:34;;;;;;;136.80;42.47;;;13.10;99.90;;;;;;5057899;28;20043;-72
2022/10/28 04:49:03;;;;;;;142.55;42.83;;;13.20;99.90;;;;;;5042994;28;20104;-72
2022/10/28 04:51:29;;;;;;;139.13;41.65;;;13.10;99.90;;;;;;5056569;28;20032;-72
2022/10/28 04:53:54;;;;;;;135.80;42.08;;;13.10;99.90;;;;;;5052733;28;20383;-72
2022/10/28 04:56:20;;;;;;;135.10;42.13;;;13.10;99.90;;;;;;5052606;28;20044;-72
2022/10/28 04:58:46;;;;;;;131.00;41.90;;;13.10;99.90;;;;;;5055617;28;20039;-72
2022/10/28 05:01:12;;;;;;;132.32;40.80;;;13.10;99.90;;;;;;5053500;28;20085;-72
2022/10/28 05:03:38;;;;;;;141.95;41.63;;;13.10;99.90;;;;;;5044201;28;20036;-72
2022/10/28 05:06:03;;;;;;;128.02;41.67;;;13.10;99.90;;;;;;5053212;28;20055;-72
2022/10/28 05:08:29;;;;;;;155.02;43.85;;;13.00;99.90;;;;;;5058436;28;20115;-72
2022/10/28 05:10:55;;;;;;;143.93;42.47;;;13.10;99.90;;;;;;5056285;28;20044;-72
2022/10/28 05:13:20;;;;;;;135.52;40.42;;;13.10;99.90;;;;;;5058125;28;20091;-72
2022/10/28 05:15:49;;;;;;;135.98;40.38;;;13.10;99.90;;;;;;5054176;28;20668;-72
2022/10/28 05:18:15;;;;;;;125.82;40.90;;;13.10;99.90;;;;;;5063957;28;20132;-72
2022/10/28 05:20:42;;;;;;;130.18;39.63;;;13.00;99.90;;;;;;5060013;28;20151;-72
2022/10/28 05:23:07;;;;;;;134.50;39.38;;;13.00;99.90;;;;;;5059175;28;20040;-72
2022/10/28 05:25:33;;;;;;;126.57;39.58;;;13.10;99.90;;;;;;5061090;28;20129;-72
2022/10/28 05:27:59;;;;;;;116.20;37.65;;;13.00;99.90;;;;;;5079583;28;20040;-72
2022/10/28 05:30:25;;;;;;;121.97;37.45;;;13.00;99.90;;;;;;5061381;28;20107;-72
2022/10/28 05:32:57;;;;;;;134.40;38.35;;;13.10;99.90;;;;;;5078517;28;20376;-73
2022/10/28 05:35:22;;;;;;;116.50;37.40;;;13.00;99.90;;;;;;5059488;28;20032;-72
2022/10/28 05:37:48;;;;;;;118.28;36.97;;;13.00;99.90;;;;;;5075553;28;20097;-72
2022/10/28 05:40:14;;;;;;;124.97;37.70;;;13.10;99.90;;;;;;5071126;28;20054;-73
2022/10/28 05:42:41;;;;;;;120.70;35.63;;;13.10;99.90;;;;;;5064745;28;20032;-73
2022/10/28 05:45:07;;;;;;;113.15;36.13;;;13.00;99.90;;;;;;5047789;28;20130;-73
2022/10/28 05:47:33;;;;;;;117.65;36.83;;;13.00;99.90;;;;;;5062460;28;20036;-72
2022/10/28 05:49:58;;;;;;;119.28;36.13;;;13.10;99.90;;;;;;5062222;28;20180;-73
2022/10/28 05:52:24;;;;;;;134.43;35.40;;;13.00;99.90;;;;;;5059774;28;20115;-72
2022/10/28 05:54:50;;;;;;;116.10;34.67;;;13.00;99.90;;;;;;5064622;28;20036;-72
2022/10/28 05:57:16;;;;;;;111.65;35.25;;;13.00;99.90;;;;;;5049839;28;20094;-72
2022/10/28 05:59:41;;;;;;;103.03;35.17;;;13.00;99.90;;;;;;5062542;28;20118;-73
2022/10/28 06:02:13;;;;;;;122.60;35.78;;;13.00;99.90;;;;;;5072241;28;20359;-73
2022/10/28 06:04:39;;;;;;;109.10;33.63;;;13.00;99.90;;;;;;5065474;28;20067;-73
2022/10/28 06:07:05;;;;;;;108.00;33.40;;;13.00;99.90;;;;;;5058271;28;20036;-72
2022/10/28 06:09:31;;;;;;;98.55;32.17;;;13.00;99.90;;;;;;5058102;28;20504;-72
2022/10/28 06:11:56;;;;;;;103.18;32.97;;;12.90;99.90;;;;;;5061139;28;20406;-72
2022/10/28 06:14:22;;;;;;;96.88;32.22;;;12.90;99.90;;;;;;5063035;28;20124;-73
2022/10/28 06:16:48;;;;;;;108.15;33.13;;;12.90;99.90;;;;;;5075646;28;20694;-73
2022/10/28 06:19:13;;;;;;;110.32;33.30;;;12.90;99.90;;;;;;5065467;28;20089;-73
2022/10/28 06:21:39;;;;;;;100.13;33.33;;;12.90;99.90;;;;;;5058811;28;20051;-73
2022/10/28 06:24:05;;;;;;;118.95;34.35;;;13.00;99.90;;;;;;5059120;28;20225;-73
2022/10/28 06:26:30;;;;;;;102.43;30.88;;;13.00;99.90;;;;;;5060072;28;20036;-73
2022/10/28 06:28:56;;;;;;;103.57;31.70;;;12.90;99.90;;;;;;5061231;28;20090;-73
2022/10/28 06:31:21;;;;;;;101.15;30.92;;;12.90;99.90;;;;;;5056384;28;20109;-73
2022/10/28 06:33:47;;;;;;;101.43;31.27;;;12.90;99.90;;;;;;5058705;28;20047;-73
2022/10/28 06:36:12;;;;;;;112.38;33.15;;;12.90;99.90;;;;;;5056650;28;20467;-73
2022/10/28 06:38:38;;;;;;;105.00;31.52;;;12.90;99.90;;;;;;5061012;28;20055;-73
2022/10/28 06:41:04;;;;;;;101.93;31.38;;;13.00;99.90;;;;;;5077168;28;20475;-73
2022/10/28 06:43:29;;;;;;;101.47;32.65;;;13.10;99.90;;;;;;5061061;28;20083;-73
2022/10/28 06:45:56;;;;;;;112.63;31.73;;;13.10;99.90;;;;;;5057612;28;20047;-73
2022/10/28 06:48:22;;;;;;;97.50;31.40;;;13.10;99.90;;;;;;5064429;28;20118;-73
2022/10/28 06:50:48;;;;;;;93.90;31.60;;;13.10;99.90;;;;;;5062447;28;20036;-73
2022/10/28 06:53:13;;;;;;;99.05;29.48;;;13.10;99.90;;;;;;5056883;28;20036;-73
2022/10/28 06:55:39;;;;;;;90.45;29.77;;;13.10;99.90;;;;;;5062116;28;20074;-73
2022/10/28 06:58:05;;;;;;;111.18;31.42;;;13.20;99.90;;;;;;5040493;28;20059;-73
2022/10/28 07:00:32;;;;;;;96.85;29.90;;;13.20;99.90;;;;;;5065857;28;20110;-73
2022/10/28 07:02:57;;;;;;;93.97;29.15;;;13.20;99.90;;;;;;5046932;28;20177;-73
2022/10/28 07:05:25;;;;;;;93.68;30.23;;;13.30;99.90;;;;;;5059839;28;20303;-73
2022/10/28 07:07:52;;;;;;;96.10;29.98;;;13.30;99.90;;;;;;5076654;28;20079;-73
2022/10/28 07:10:18;;;;;;;91.28;30.15;;;13.40;99.90;;;;;;5060479;28;20086;-73
2022/10/28 07:12:44;;;;;;;103.97;29.27;;;13.40;99.90;;;;;;5058268;28;20043;-73
2022/10/28 07:15:10;;;;;;;95.97;30.60;;;13.40;99.90;;;;;;5063829;28;20498;-73
2022/10/28 07:17:35;;;;;;;92.93;28.33;;;13.50;99.90;;;;;;5059330;28;20036;-73
2022/10/28 07:20:01;;;;;;;102.72;28.42;;;13.50;99.90;;;;;;5071167;28;20036;-73
2022/10/28 07:22:27;;;;;;;99.45;29.92;;;13.60;99.90;;;;;;5062205;28;20462;-73
2022/10/28 07:24:52;;;;;;;96.05;28.48;;;13.60;99.90;;;;;;5059167;28;20132;-73
2022/10/28 07:27:18;;;;;;;98.03;28.83;;;13.60;99.90;;;;;;5060810;28;20047;-73
2022/10/28 07:29:44;;;;;;;86.80;28.15;;;13.60;99.90;;;;;;5076272;28;20043;-73
2022/10/28 07:32:09;;;;;;;83.07;26.77;;;13.70;99.90;;;;;;5049947;28;20044;-73
2022/10/28 07:34:35;;;;;;;96.53;29.13;;;13.80;99.90;;;;;;5054873;28;20064;-73
2022/10/28 07:37:00;;;;;;;87.18;28.23;;;13.90;99.90;;;;;;5058199;28;20086;-73
2022/10/28 07:39:26;;;;;;;103.18;29.30;;;13.90;99.90;;;;;;5055893;28;20040;-72
2022/10/28 07:41:52;;;;;;;89.28;28.02;;;13.90;99.90;;;;;;5073302;28;20093;-72
2022/10/28 07:44:17;;;;;;;84.70;27.00;;;14.00;99.90;;;;;;5072318;28;20054;-72
2022/10/28 07:46:43;;;;;;;89.30;27.23;;;14.00;99.90;;;;;;5074388;28;20093;-73
2022/10/28 07:49:08;;;;;;;90.40;27.02;;;14.10;99.90;;;;;;5058944;28;20173;-73
2022/10/28 07:51:34;;;;;;;88.35;26.27;;;14.20;99.90;;;;;;5045531;28;20064;-72
2022/10/28 07:53:59;;;;;;;94.07;28.60;;;14.30;99.90;;;;;;5062465;28;20040;-73
2022/10/28 07:56:25;;;;;;;84.25;26.75;;;14.30;99.90;;;;;;5063174;28;20116;-73
2022/10/28 07:58:51;;;;;;;80.40;25.98;;;14.30;99.90;;;;;;5055259;28;20089;-73
2022/10/28 08:01:18;;;;;;;80.32;26.20;;;14.30;99.90;;;;;;5060045;28;20047;-73
2022/10/28 08:03:46;;;;;;;79.97;26.25;;;14.40;99.90;;;;;;5072494;28;20031;-73
2022/10/28 08:06:16;;;;;;;87.57;25.33;;;14.50;99.90;;;;;;5058269;28;20054;-73
2022/10/28 08:08:42;;;;;;;72.00;24.05;;;14.50;99.90;;;;;;5078982;28;20079;-73
2022/10/28 08:11:09;;;;;;;91.57;26.25;;;14.50;99.90;;;;;;5060781;28;21063;-72
2022/10/28 08:13:35;;;;;;;79.85;25.60;;;14.60;99.90;;;;;;5080762;28;20119;-73
2022/10/28 08:16:00;;;;;;;79.70;25.60;;;14.60;99.90;;;;;;5062991;28;20146;-73
2022/10/28 08:18:26;;;;;;;84.00;25.02;;;14.60;99.90;;;;;;5059969;28;20032;-72
2022/10/28 08:20:51;;;;;;;75.68;24.65;;;14.70;99.90;;;;;;5047296;28;20031;-72
2022/10/28 08:23:17;;;;;;;83.07;23.77;;;14.70;99.90;;;;;;5057861;28;20052;-72
2022/10/28 08:25:50;;;;;;;75.75;25.38;;;14.90;99.90;;;;;;5058931;28;20037;-73
2022/10/28 08:28:16;;;;;;;75.28;24.73;;;15.00;99.90;;;;;;5059613;28;20071;-73
2022/10/28 08:30:42;;;;;;;83.05;23.70;;;15.00;99.90;;;;;;5055229;28;20039;-72
2022/10/28 08:33:08;;;;;;;73.75;24.90;;;15.10;99.90;;;;;;5052462;28;20040;-73
2022/10/28 08:35:34;;;;;;;74.45;24.05;;;15.20;99.90;;;;;;5063151;28;20036;-72
2022/10/28 08:38:00;;;;;;;73.38;23.92;;;15.30;99.90;;;;;;5039847;28;20028;-72
2022/10/28 08:40:33;;;;;;;84.22;25.38;;;15.50;99.90;;;;;;5067745;28;20035;-72
2022/10/28 08:43:21;;;;;;;72.22;23.75;;;15.60;99.90;;;;;;5054948;28;20040;-72
2022/10/28 08:46:03;;;;;;;85.68;25.42;;;15.70;99.90;;;;;;5074811;28;20384;-73
2022/10/28 08:48:34;;;;;;;85.93;26.07;;;15.80;99.90;;;;;;5058509;28;20457;-73
2022/10/28 08:51:15;;;;;;;69.47;23.30;;;16.10;99.90;;;;;;5059925;28;20032;-73
2022/10/28 08:54:19;;;;;;;82.25;23.13;;;16.20;99.90;;;;;;5063130;28;20697;-73
2022/10/28 08:56:47;;;;;;;67.03;23.45;;;16.20;99.90;;;;;;5020116;28;20388;-73
2022/10/28 08:59:18;;;;;;;74.47;22.17;;;16.40;99.90;;;;;;5054776;28;20046;-73
2022/10/28 09:01:56;;;;;;;69.65;21.05;;;16.40;99.90;;;;;;5064615;28;20777;-73
2022/10/28 09:04:43;;;;;;;72.40;21.73;;;16.40;99.90;;;;;;5045056;28;20039;-73
2022/10/28 09:07:17;;;;;;;60.70;20.27;;;16.60;99.90;;;;;;5055432;28;20044;-73
2022/10/28 09:09:44;;;;;;;65.45;20.63;;;16.60;99.90;;;;;;5058415;28;20066;-73
2022/10/28 09:12:21;;;;;;;71.45;21.02;;;16.60;99.90;;;;;;5058039;28;20698;-73
2022/10/28 09:15:08;;;;;;;72.10;21.10;;;16.70;99.90;;;;;;5060811;28;20116;-73
2022/10/28 09:17:50;;;;;;;69.63;19.67;;;16.80;99.90;;;;;;5058803;28;20541;-73
2022/10/28 09:20:42;;;;;;;63.33;20.42;;;16.80;99.90;;;;;;5058396;28;20033;-73
2022/10/28 09:23:18;;;;;;;69.32;19.85;;;16.90;99.90;;;;;;5057137;28;20052;-73
2022/10/28 09:26:13;;;;;;;75.72;19.33;;;16.90;99.90;;;;;;5053649;28;20035;-73
2022/10/28 09:29:04;;;;;;;60.97;19.42;;;17.00;99.90;;;;;;5030591;28;20117;-74
2022/10/28 09:32:18;;;;;;;57.42;18.63;;;17.00;99.90;;;;;;5056210;28;20048;-73
2022/10/28 09:34:45;;;;;;;;;;;17.00;99.90;;;;;;4959849;28;20144;-73
2022/10/28 09:37:14;;;;;;;77.22;19.40;;;17.00;99.90;;;;;;5046418;28;19922;-73
2022/10/28 09:39:47;;;;;;;63.20;18.50;;;17.00;99.90;;;;;;5053231;28;20032;-73
2022/10/28 09:42:46;;;;;;;60.47;18.15;;;17.00;99.90;;;;;;5056191;28;20103;-73
2022/10/28 09:45:18;;;;;;;66.72;18.80;;;17.20;99.90;;;;;;5059717;28;20043;-73
2022/10/28 09:47:57;;;;;;;62.50;18.50;;;17.20;99.90;;;;;;5056231;28;20050;-73
2022/10/28 09:50:28;;;;;;;61.47;17.33;;;17.10;99.90;;;;;;5072216;28;20036;-73
2022/10/28 09:53:39;;;;;;;60.50;18.10;;;17.20;99.90;;;;;;5036384;28;20037;-72
2022/10/28 09:56:05;;;;;;;53.05;17.75;;;17.20;99.90;;;;;;5006696;28;20042;-73
2022/10/28 09:58:35;;;;;;;64.82;17.50;;;17.30;99.90;;;;;;5029237;28;20134;-72
2022/10/28 10:01:03;;;;;;;63.70;17.77;;;17.20;99.90;;;;;;5035287;28;20103;-73
2022/10/28 10:03:30;;;;;;;55.75;17.63;;;17.30;99.90;;;;;;5063791;28;20032;-73
2022/10/28 10:06:10;;;;;;;65.07;16.88;;;17.40;99.90;;;;;;5073254;28;20043;-73
2022/10/28 10:08:38;;;;;;;59.90;16.77;;;17.50;99.90;;;;;;5073314;28;20043;-72
2022/10/28 10:11:06;;;;;;;54.67;17.05;;;17.60;99.90;;;;;;5061068;28;20418;-73
2022/10/28 10:13:36;;;;;;;63.80;17.00;;;17.70;99.90;;;;;;5061169;28;20097;-72
2022/10/28 10:16:45;;;;;;;62.50;18.05;;;17.90;99.90;;;;;;5082104;28;20032;-73
2022/10/28 10:19:11;;;;;;;60.47;16.63;;;17.90;99.90;;;;;;5060542;28;20045;-72
2022/10/28 10:21:49;;;;;;;61.22;18.13;;;18.00;99.90;;;;;;5057401;28;20040;-73
2022/10/28 10:24:33;;;;;;;59.92;16.90;;;17.90;99.90;;;;;;5063401;28;20044;-72
2022/10/28 10:27:20;;;;;;;60.00;16.92;;;18.00;99.90;;;;;;5060381;28;20040;-73
2022/10/28 10:29:48;;;;;;;55.83;16.25;;;18.00;99.90;;;;;;5062785;28;20056;-72
2022/10/28 10:32:18;;;;;;;57.28;16.52;;;18.00;99.90;;;;;;5050423;28;20047;-73
2022/10/28 10:35:14;;;;;;;58.30;16.58;;;18.00;99.90;;;;;;5065032;28;20129;-73
2022/10/28 10:37:45;;;;;;;53.53;15.90;;;18.10;99.90;;;;;;5080990;28;20028;-73
2022/10/28 10:40:20;;;;;;;56.05;16.55;;;18.10;99.90;;;;;;5078984;28;20068;-73
2022/10/28 10:42:47;;;;;;;60.25;16.45;;;18.10;99.90;;;;;;5062464;28;20148;-73
2022/10/28 10:45:15;;;;;;;64.97;17.23;;;18.10;99.90;;;;;;5069039;28;20051;-73
2022/10/28 10:47:41;;;;;;;54.70;16.67;;;18.10;99.90;;;;;;5070920;28;20055;-73
2022/10/28 10:50:29;;;;;;;62.10;17.15;;;18.10;99.90;;;;;;5076681;28;20487;-73
2022/10/28 10:52:57;;;;;;;57.25;16.30;;;18.10;99.90;;;;;;5065280;28;20041;-73
2022/10/28 10:55:40;;;;;;;58.75;16.40;;;18.20;99.90;;;;;;5072695;28;20114;-73
2022/10/28 10:58:14;;;;;;;57.92;17.48;;;18.30;99.90;;;;;;5056043;28;20031;-72
2022/10/28 11:00:46;;;;;;;59.80;17.73;;;18.30;99.90;;;;;;5077194;28;20451;-73
2022/10/28 11:03:35;;;;;;;60.13;15.30;;;18.50;99.90;;;;;;5061951;28;20058;-73
2022/10/28 11:06:03;;;;;;;48.97;15.55;;;18.60;99.90;;;;;;5081971;28;20036;-73
2022/10/28 11:08:42;;;;;;;64.22;16.20;;;18.70;99.90;;;;;;5062490;28;20024;-72
2022/10/28 11:11:21;;;;;;;60.38;16.90;;;18.90;99.90;;;;;;5060735;28;20040;-73
2022/10/28 11:14:00;;;;;;;58.83;16.27;;;18.90;99.90;;;;;;5074380;28;20473;-72
2022/10/28 11:16:26;;;;;;;62.53;15.90;;;19.00;99.90;;;;;;5078109;28;20032;-73
2022/10/28 11:18:52;;;;;;;57.80;15.93;;;19.00;99.90;;;;;;5043325;28;20085;-72
2022/10/28 11:21:54;;;;;;;68.15;16.63;;;19.00;99.90;;;;;;5082268;28;20119;-73
2022/10/28 11:24:29;;;;;;;57.97;16.80;;;19.00;99.90;;;;;;5085588;28;20106;-73
2022/10/28 11:27:28;;;;;;;57.72;16.70;;;19.00;99.90;;;;;;5067018;28;20040;-73
2022/10/28 11:29:55;;;;;;;46.38;15.75;;;19.10;99.90;;;;;;5052977;28;20036;-72
2022/10/28 11:32:29;;;;;;;57.78;16.10;;;19.10;99.90;;;;;;5066788;28;20044;-72
2022/10/28 11:35:21;;;;;;;51.05;16.10;;;19.10;99.90;;;;;;5063384;28;20033;-73
2022/10/28 11:38:10;;;;;;;55.55;17.10;;;19.20;99.90;;;;;;5059388;28;20047;-73
2022/10/28 11:40:56;;;;;;;56.97;16.33;;;19.20;99.90;;;;;;5068849;28;20032;-72
2022/10/28 11:43:44;;;;;;;66.05;16.35;;;19.40;99.90;;;;;;5049100;28;20057;-72
2022/10/28 11:46:34;;;;;;;66.25;17.15;;;19.40;99.90;;;;;;5046249;28;20441;-72
2022/10/28 11:49:18;;;;;;;60.67;17.13;;;19.50;99.90;;;;;;5064412;28;20813;-72
2022/10/28 11:52:02;;;;;;;61.60;16.92;;;19.50;99.90;;;;;;5059511;28;20040;-72
2022/10/28 11:54:27;;;;;;;68.57;18.20;;;19.50;99.90;;;;;;5067609;28;20510;-72
2022/10/28 11:57:12;;;;;;;54.88;16.25;;;19.50;99.90;;;;;;5067238;28;20127;-71
2022/10/28 12:00:03;;;;;;;64.07;16.63;;;19.50;99.90;;;;;;5068768;28;20074;-71
2022/10/28 12:02:50;;;;;;;66.77;16.83;;;19.50;99.90;;;;;;5071579;28;20135;-71
2022/10/28 12:05:22;;;;;;;56.28;17.17;;;19.50;99.90;;;;;;5056054;28;20403;-72
2022/10/28 12:08:01;;;;;;;63.33;18.83;;;19.40;99.90;;;;;;5050406;28;20058;-72
2022/10/28 12:10:46;;;;;;;60.42;18.05;;;19.50;99.90;;;;;;5056806;28;20040;-72
2022/10/28 12:13:34;;;;;;;62.53;17.70;;;19.50;99.90;;;;;;5059009;28;20048;-71
2022/10/28 12:16:06;;;;;;;65.65;17.83;;;19.50;99.90;;;;;;5066305;28;20097;-75
2022/10/28 12:18:42;;;;;;;63.45;16.52;;;19.50;99.90;;;;;;5065208;28;20119;-74
2022/10/28 12:21:21;;;;;;;62.50;17.77;;;19.60;99.90;;;;;;5055679;28;20044;-77
2022/10/28 12:23:48;;;;;;;63.33;17.67;;;19.60;99.90;;;;;;5067092;28;20483;-71
2022/10/28 12:26:16;;;;;;;60.75;17.60;;;19.70;99.90;;;;;;5081818;28;20048;-72
2022/10/28 12:28:56;;;;;;;64.00;16.90;;;19.70;99.90;;;;;;5077122;28;20047;-71
2022/10/28 12:31:30;;;;;;;56.10;16.33;;;19.70;99.90;;;;;;5062940;28;20044;-71
2022/10/28 12:34:00;;;;;;;66.22;16.08;;;19.70;99.90;;;;;;5071026;28;20135;-72
2022/10/28 12:36:32;;;;;;;66.95;16.92;;;19.70;99.90;;;;;;5067019;28;20119;-72
2022/10/28 12:39:11;;;;;;;;;;;19.70;99.90;;;;;;5071761;28;20415;-72
2022/10/28 12:41:55;;;;;;;;;;;19.70;99.90;;;;;;5063747;28;19916;-72
2022/10/28 12:44:22;;;;;;;;;;;19.70;99.90;;;;;;5071637;28;19927;-71
2022/10/28 12:47:06;;;;;;;;;;;19.70;99.90;;;;;;5058854;28;19968;-72
2022/10/28 12:49:50;;;;;;;;;;;19.70;99.90;;;;;;5069411;28;20065;-72